sensor_id;sensor_type;location;lat;lon;timestamp;pressure;altitude;pressure_sealevel;temperature;humidity
32109;BME280;18624;50.042;8.436;2022-12-29T00:00:05;99775.81;;;8.64;100.00
32109;BME280;18624;50.042;8.436;2022-12-29T00:02:39;99768.91;;;8.76;100.00
32109;BME280;18624;50.042;8.436;2022-12-29T00:05:06;99709.41;;;8.38;100.00
32109;BME280;18624;50.042;8.436;2022-12-29T00:07:33;99765.56;;;8.84;100.00
32109;BME280;18624;50.042;8.436;2022-12-29T00:10:00;99767.44;;;8.87;100.00
32109;BME280;18624;50.042;8.436;2022-12-29T00:12:26;99768.97;;;8.88;100.00
32109;BME280;18624;50.042;8.436;2022-12-29T00:15:12;99772.78;;;8.91;100.00
32109;BME280;18624;50.042;8.436;2022-12-29T00:17:58;99767.56;;;8.97;100.00
32109;BME280;18624;50.042;8.436;2022-12-29T00:20:24;99771.06;;;8.97;100.00
32109;BME280;18624;50.042;8.436;2022-12-29T00:23:09;99772.50;;;9.02;100.00
32109;BME280;18624;50.042;8.436;2022-12-29T00:26:11;99774.34;;;9.05;100.00
32109;BME280;18624;50.042;8.436;2022-12-29T00:28:58;99763.78;;;9.07;100.00
32109;BME280;18624;50.042;8.436;2022-12-29T00:31:43;99768.47;;;9.06;100.00
32109;BME280;18624;50.042;8.436;2022-12-29T00:34:28;99762.47;;;9.11;100.00
32109;BME280;18624;50.042;8.436;2022-12-29T00:37:13;99759.50;;;9.06;100.00
32109;BME280;18624;50.042;8.436;2022-12-29T00:39:40;99769.59;;;9.22;100.00
32109;BME280;18624;50.042;8.436;2022-12-29T00:42:25;99756.28;;;9.24;100.00
32109;BME280;18624;50.042;8.436;2022-12-29T00:45:09;99775.78;;;9.38;100.00
32109;BME280;18624;50.042;8.436;2022-12-29T00:47:36;99760.34;;;9.45;100.00
32109;BME280;18624;50.042;8.436;2022-12-29T00:50:02;99765.72;;;9.48;100.00
32109;BME280;18624;50.042;8.436;2022-12-29T00:52:29;99770.44;;;9.48;100.00
32109;BME280;18624;50.042;8.436;2022-12-29T00:54:55;99760.25;;;9.48;100.00
32109;BME280;18624;50.042;8.436;2022-12-29T00:57:22;99765.41;;;9.46;100.00
32109;BME280;18624;50.042;8.436;2022-12-29T00:59:48;99770.13;;;9.46;100.00
32109;BME280;18624;50.042;8.436;2022-12-29T01:02:15;99757.63;;;9.45;100.00
32109;BME280;18624;50.042;8.436;2022-12-29T01:04:42;99773.63;;;9.46;100.00
32109;BME280;18624;50.042;8.436;2022-12-29T01:07:08;99760.88;;;9.39;100.00
32109;BME280;18624;50.042;8.436;2022-12-29T01:09:36;99768.25;;;9.43;100.00
32109;BME280;18624;50.042;8.436;2022-12-29T01:12:21;99767.47;;;9.42;100.00
32109;BME280;18624;50.042;8.436;2022-12-29T01:15:10;99763.22;;;9.41;100.00
32109;BME280;18624;50.042;8.436;2022-12-29T01:17:37;99759.59;;;9.44;100.00
32109;BME280;18624;50.042;8.436;2022-12-29T01:20:04;99668.50;;;8.93;100.00
32109;BME280;18624;50.042;8.436;2022-12-29T01:22:30;99752.59;;;9.43;100.00
32109;BME280;18624;50.042;8.436;2022-12-29T01:24:57;99675.06;;;8.95;100.00
32109;BME280;18624;50.042;8.436;2022-12-29T01:27:23;99750.16;;;9.45;100.00
32109;BME280;18624;50.042;8.436;2022-12-29T01:29:50;99751.06;;;9.42;100.00
32109;BME280;18624;50.042;8.436;2022-12-29T01:32:16;99659.66;;;8.88;100.00
32109;BME280;18624;50.042;8.436;2022-12-29T01:34:43;99747.88;;;9.44;100.00
32109;BME280;18624;50.042;8.436;2022-12-29T01:37:10;99736.19;;;9.43;100.00
32109;BME280;18624;50.042;8.436;2022-12-29T01:39:37;99748.22;;;9.46;100.00
32109;BME280;18624;50.042;8.436;2022-12-29T01:42:04;99735.72;;;9.45;100.00
32109;BME280;18624;50.042;8.436;2022-12-29T01:44:47;99738.59;;;9.41;100.00
32109;BME280;18624;50.042;8.436;2022-12-29T01:47:39;99740.97;;;9.39;100.00
32109;BME280;18624;50.042;8.436;2022-12-29T01:50:10;99734.09;;;9.34;100.00
32109;BME280;18624;50.042;8.436;2022-12-29T01:53:16;99735.38;;;9.30;100.00
32109;BME280;18624;50.042;8.436;2022-12-29T01:55:46;99731.53;;;9.27;100.00
32109;BME280;18624;50.042;8.436;2022-12-29T01:58:15;99723.47;;;9.24;100.00
32109;BME280;18624;50.042;8.436;2022-12-29T02:00:44;99729.03;;;9.20;100.00
32109;BME280;18624;50.042;8.436;2022-12-29T02:03:11;99727.81;;;9.21;100.00
32109;BME280;18624;50.042;8.436;2022-12-29T02:05:42;99722.81;;;9.20;100.00
32109;BME280;18624;50.042;8.436;2022-12-29T02:08:12;99725.84;;;9.22;100.00
32109;BME280;18624;50.042;8.436;2022-12-29T02:10:40;99727.06;;;9.21;100.00
32109;BME280;18624;50.042;8.436;2022-12-29T02:13:06;99725.94;;;9.18;100.00
32109;BME280;18624;50.042;8.436;2022-12-29T02:16:18;99719.72;;;9.18;100.00
32109;BME280;18624;50.042;8.436;2022-12-29T02:21:59;99699.91;;;9.13;100.00
32109;BME280;18624;50.042;8.436;2022-12-29T02:27:19;99703.13;;;9.25;100.00
32109;BME280;18624;50.042;8.436;2022-12-29T02:33:13;99691.72;;;9.26;100.00
32109;BME280;18624;50.042;8.436;2022-12-29T02:35:53;99683.97;;;9.25;100.00
32109;BME280;18624;50.042;8.436;2022-12-29T02:41:27;99640.72;;;8.94;100.00
32109;BME280;18624;50.042;8.436;2022-12-29T02:44:12;99683.31;;;9.21;100.00
32109;BME280;18624;50.042;8.436;2022-12-29T02:46:47;99683.63;;;9.23;100.00
32109;BME280;18624;50.042;8.436;2022-12-29T02:49:38;99672.38;;;9.21;100.00
32109;BME280;18624;50.042;8.436;2022-12-29T02:52:17;99671.16;;;9.22;100.00
32109;BME280;18624;50.042;8.436;2022-12-29T02:54:48;99626.31;;;8.94;100.00
32109;BME280;18624;50.042;8.436;2022-12-29T02:57:29;99668.88;;;9.20;100.00
32109;BME280;18624;50.042;8.436;2022-12-29T03:00:10;99657.94;;;9.20;100.00
32109;BME280;18624;50.042;8.436;2022-12-29T03:14:16;99646.91;;;9.24;100.00
32109;BME280;18624;50.042;8.436;2022-12-29T03:17:09;99613.53;;;9.03;100.00
32109;BME280;18624;50.042;8.436;2022-12-29T03:19:44;99626.09;;;9.13;100.00
32109;BME280;18624;50.042;8.436;2022-12-29T03:22:22;99637.03;;;9.26;100.00
32109;BME280;18624;50.042;8.436;2022-12-29T03:25:08;99631.16;;;9.28;100.00
32109;BME280;18624;50.042;8.436;2022-12-29T03:27:49;99624.59;;;9.25;100.00
32109;BME280;18624;50.042;8.436;2022-12-29T03:30:18;99632.69;;;9.29;100.00
32109;BME280;18624;50.042;8.436;2022-12-29T03:32:52;99635.41;;;9.29;100.00
32109;BME280;18624;50.042;8.436;2022-12-29T03:35:25;99630.72;;;9.29;100.00
32109;BME280;18624;50.042;8.436;2022-12-29T03:38:07;99638.47;;;9.31;100.00
32109;BME280;18624;50.042;8.436;2022-12-29T03:40:38;99635.72;;;9.31;100.00
32109;BME280;18624;50.042;8.436;2022-12-29T03:43:07;99630.72;;;9.29;100.00
32109;BME280;18624;50.042;8.436;2022-12-29T03:45:35;99588.91;;;9.03;100.00
32109;BME280;18624;50.042;8.436;2022-12-29T03:48:02;99629.41;;;9.34;100.00
32109;BME280;18624;50.042;8.436;2022-12-29T03:50:29;99629.28;;;9.37;100.00
32109;BME280;18624;50.042;8.436;2022-12-29T03:52:57;99616.59;;;9.31;100.00
32109;BME280;18624;50.042;8.436;2022-12-29T03:55:26;99622.50;;;9.42;100.00
32109;BME280;18624;50.042;8.436;2022-12-29T03:57:52;99618.13;;;9.45;100.00
32109;BME280;18624;50.042;8.436;2022-12-29T04:00:29;99612.97;;;9.47;100.00
32109;BME280;18624;50.042;8.436;2022-12-29T04:02:56;99612.22;;;9.46;100.00
32109;BME280;18624;50.042;8.436;2022-12-29T04:05:23;99612.53;;;9.48;100.00
32109;BME280;18624;50.042;8.436;2022-12-29T04:07:52;99610.16;;;9.50;100.00
32109;BME280;18624;50.042;8.436;2022-12-29T04:10:19;99611.66;;;9.51;100.00
32109;BME280;18624;50.042;8.436;2022-12-29T04:12:47;99583.13;;;9.39;100.00
32109;BME280;18624;50.042;8.436;2022-12-29T04:15:14;99603.97;;;9.59;100.00
32109;BME280;18624;50.042;8.436;2022-12-29T04:17:41;99611.66;;;9.64;100.00
32109;BME280;18624;50.042;8.436;2022-12-29T04:20:08;99605.28;;;9.67;100.00
32109;BME280;18624;50.042;8.436;2022-12-29T04:23:05;99610.66;;;9.71;100.00
32109;BME280;18624;50.042;8.436;2022-12-29T04:25:33;99603.97;;;9.72;100.00
32109;BME280;18624;50.042;8.436;2022-12-29T04:28:01;99598.06;;;9.73;100.00
32109;BME280;18624;50.042;8.436;2022-12-29T04:30:52;99616.66;;;9.78;100.00
32109;BME280;18624;50.042;8.436;2022-12-29T04:33:22;99602.53;;;9.80;100.00
32109;BME280;18624;50.042;8.436;2022-12-29T04:35:48;99584.59;;;9.66;100.00
32109;BME280;18624;50.042;8.436;2022-12-29T04:38:16;99607.53;;;9.81;100.00
32109;BME280;18624;50.042;8.436;2022-12-29T04:40:44;99611.84;;;9.82;100.00
32109;BME280;18624;50.042;8.436;2022-12-29T04:43:11;99607.00;;;9.86;100.00
32109;BME280;18624;50.042;8.436;2022-12-29T04:45:57;99611.16;;;9.91;100.00
32109;BME280;18624;50.042;8.436;2022-12-29T04:48:28;99600.06;;;9.95;100.00
32109;BME280;18624;50.042;8.436;2022-12-29T04:51:07;99601.94;;;9.98;100.00
32109;BME280;18624;50.042;8.436;2022-12-29T04:53:37;99601.47;;;9.99;100.00
32109;BME280;18624;50.042;8.436;2022-12-29T04:56:03;99615.16;;;9.99;100.00
32109;BME280;18624;50.042;8.436;2022-12-29T04:58:30;99611.00;;;9.95;100.00
32109;BME280;18624;50.042;8.436;2022-12-29T05:00:58;99611.59;;;9.89;100.00
32109;BME280;18624;50.042;8.436;2022-12-29T05:03:28;99593.34;;;9.74;100.00
32109;BME280;18624;50.042;8.436;2022-12-29T05:05:55;99593.91;;;9.69;100.00
32109;BME280;18624;50.042;8.436;2022-12-29T05:08:22;99620.34;;;9.84;100.00
32109;BME280;18624;50.042;8.436;2022-12-29T05:10:55;99629.88;;;9.80;100.00
32109;BME280;18624;50.042;8.436;2022-12-29T05:13:22;99622.13;;;9.78;100.00
32109;BME280;18624;50.042;8.436;2022-12-29T05:15:50;99564.72;;;9.40;100.00
32109;BME280;18624;50.042;8.436;2022-12-29T05:18:18;99636.56;;;9.79;100.00
32109;BME280;18624;50.042;8.436;2022-12-29T05:20:45;99628.47;;;9.75;100.00
32109;BME280;18624;50.042;8.436;2022-12-29T05:23:12;99618.53;;;9.69;100.00
32109;BME280;18624;50.042;8.436;2022-12-29T05:25:40;99569.22;;;9.34;100.00
32109;BME280;18624;50.042;8.436;2022-12-29T05:28:29;99602.22;;;9.65;100.00
32109;BME280;18624;50.042;8.436;2022-12-29T05:31:01;99613.28;;;9.61;100.00
32109;BME280;18624;50.042;8.436;2022-12-29T05:33:29;99608.25;;;9.60;100.00
32109;BME280;18624;50.042;8.436;2022-12-29T05:35:56;99612.53;;;9.61;100.00
32109;BME280;18624;50.042;8.436;2022-12-29T05:38:23;99596.09;;;9.61;100.00
32109;BME280;18624;50.042;8.436;2022-12-29T05:40:49;99613.28;;;9.61;100.00
32109;BME280;18624;50.042;8.436;2022-12-29T05:43:39;99599.59;;;9.61;100.00
32109;BME280;18624;50.042;8.436;2022-12-29T05:46:13;99602.53;;;9.67;100.00
32109;BME280;18624;50.042;8.436;2022-12-29T05:48:57;99597.06;;;9.67;100.00
32109;BME280;18624;50.042;8.436;2022-12-29T05:51:31;99597.84;;;9.68;100.00
32109;BME280;18624;50.042;8.436;2022-12-29T05:53:58;99577.19;;;9.54;100.00
32109;BME280;18624;50.042;8.436;2022-12-29T05:56:26;99603.19;;;9.71;100.00
32109;BME280;18624;50.042;8.436;2022-12-29T05:58:56;99589.97;;;9.70;100.00
32109;BME280;18624;50.042;8.436;2022-12-29T06:01:23;99596.84;;;9.74;100.00
32109;BME280;18624;50.042;8.436;2022-12-29T06:03:50;99606.13;;;9.77;100.00
32109;BME280;18624;50.042;8.436;2022-12-29T06:06:19;99601.75;;;9.79;100.00
32109;BME280;18624;50.042;8.436;2022-12-29T06:08:46;99602.88;;;9.82;100.00
32109;BME280;18624;50.042;8.436;2022-12-29T06:11:13;99535.66;;;9.33;100.00
32109;BME280;18624;50.042;8.436;2022-12-29T06:13:44;99603.81;;;9.88;100.00
32109;BME280;18624;50.042;8.436;2022-12-29T06:16:11;99608.09;;;9.89;100.00
32109;BME280;18624;50.042;8.436;2022-12-29T06:18:38;99601.41;;;9.90;100.00
32109;BME280;18624;50.042;8.436;2022-12-29T06:21:07;99602.94;;;9.91;100.00
32109;BME280;18624;50.042;8.436;2022-12-29T06:23:34;99612.22;;;9.94;100.00
32109;BME280;18624;50.042;8.436;2022-12-29T06:26:02;99605.88;;;9.97;100.00
32109;BME280;18624;50.042;8.436;2022-12-29T06:28:29;99608.16;;;9.98;100.00
32109;BME280;18624;50.042;8.436;2022-12-29T06:30:56;99614.28;;;10.02;100.00
32109;BME280;18624;50.042;8.436;2022-12-29T06:33:23;99575.69;;;9.87;100.00
32109;BME280;18624;50.042;8.436;2022-12-29T06:35:50;99611.97;;;10.13;100.00
32109;BME280;18624;50.042;8.436;2022-12-29T06:38:16;99609.00;;;10.08;100.00
32109;BME280;18624;50.042;8.436;2022-12-29T06:40:43;99608.13;;;10.11;100.00
32109;BME280;18624;50.042;8.436;2022-12-29T06:43:40;99606.28;;;10.08;100.00
32109;BME280;18624;50.042;8.436;2022-12-29T06:46:23;99607.03;;;10.08;100.00
32109;BME280;18624;50.042;8.436;2022-12-29T06:48:50;99599.59;;;10.09;100.00
32109;BME280;18624;50.042;8.436;2022-12-29T06:51:16;99611.75;;;10.08;100.00
32109;BME280;18624;50.042;8.436;2022-12-29T06:53:43;99606.16;;;10.11;100.00
32109;BME280;18624;50.042;8.436;2022-12-29T06:56:09;99605.50;;;10.07;100.00
32109;BME280;18624;50.042;8.436;2022-12-29T06:58:35;99608.34;;;10.04;100.00
32109;BME280;18624;50.042;8.436;2022-12-29T07:01:02;99606.84;;;10.03;100.00
32109;BME280;18624;50.042;8.436;2022-12-29T07:03:29;99606.94;;;9.99;100.00
32109;BME280;18624;50.042;8.436;2022-12-29T07:05:56;99601.94;;;9.98;100.00
32109;BME280;18624;50.042;8.436;2022-12-29T07:08:24;99599.94;;;9.98;100.00
32109;BME280;18624;50.042;8.436;2022-12-29T07:10:50;99595.81;;;9.94;100.00
32109;BME280;18624;50.042;8.436;2022-12-29T07:13:17;99596.56;;;9.94;100.00
32109;BME280;18624;50.042;8.436;2022-12-29T07:15:43;99599.00;;;9.92;100.00
32109;BME280;18624;50.042;8.436;2022-12-29T07:18:10;99600.22;;;9.91;100.00
32109;BME280;18624;50.042;8.436;2022-12-29T07:20:36;99604.78;;;9.94;100.00
32109;BME280;18624;50.042;8.436;2022-12-29T07:23:03;99602.81;;;9.95;100.00
32109;BME280;18624;50.042;8.436;2022-12-29T07:25:29;99602.25;;;10.00;100.00
32109;BME280;18624;50.042;8.436;2022-12-29T07:27:55;99558.19;;;9.72;100.00
32109;BME280;18624;50.042;8.436;2022-12-29T07:30:22;99597.41;;;10.04;100.00
32109;BME280;18624;50.042;8.436;2022-12-29T07:32:48;99559.19;;;9.78;100.00
32109;BME280;18624;50.042;8.436;2022-12-29T07:35:15;99601.25;;;10.06;100.00
32109;BME280;18624;50.042;8.436;2022-12-29T07:37:43;99589.13;;;9.95;100.00
32109;BME280;18624;50.042;8.436;2022-12-29T07:40:09;99552.41;;;9.70;100.00
32109;BME280;18624;50.042;8.436;2022-12-29T07:42:36;99621.06;;;10.10;100.00
32109;BME280;18624;50.042;8.436;2022-12-29T07:45:06;99615.31;;;10.18;100.00
32109;BME280;18624;50.042;8.436;2022-12-29T07:47:40;99614.78;;;10.23;100.00
32109;BME280;18624;50.042;8.436;2022-12-29T07:50:07;99622.34;;;10.31;100.00
32109;BME280;18624;50.042;8.436;2022-12-29T07:52:33;99612.22;;;10.41;100.00
32109;BME280;18624;50.042;8.436;2022-12-29T07:55:00;99623.59;;;10.39;100.00
32109;BME280;18624;50.042;8.436;2022-12-29T07:57:26;99623.28;;;10.37;100.00
32109;BME280;18624;50.042;8.436;2022-12-29T07:59:58;99632.38;;;10.34;100.00
32109;BME280;18624;50.042;8.436;2022-12-29T08:02:24;99534.97;;;9.77;100.00
32109;BME280;18624;50.042;8.436;2022-12-29T08:04:52;99600.44;;;10.19;100.00
32109;BME280;18624;50.042;8.436;2022-12-29T08:07:19;99576.03;;;10.11;100.00
32109;BME280;18624;50.042;8.436;2022-12-29T08:09:45;99630.47;;;10.44;100.00
32109;BME280;18624;50.042;8.436;2022-12-29T08:12:12;99579.91;;;10.01;100.00
32109;BME280;18624;50.042;8.436;2022-12-29T08:14:39;99628.88;;;10.34;100.00
32109;BME280;18624;50.042;8.436;2022-12-29T08:17:05;99625.38;;;10.33;100.00
32109;BME280;18624;50.042;8.436;2022-12-29T08:19:31;99641.69;;;10.37;100.00
32109;BME280;18624;50.042;8.436;2022-12-29T08:21:58;99644.75;;;10.39;100.00
32109;BME280;18624;50.042;8.436;2022-12-29T08:24:24;99641.69;;;10.37;100.00
32109;BME280;18624;50.042;8.436;2022-12-29T08:26:51;99640.19;;;10.36;100.00
32109;BME280;18624;50.042;8.436;2022-12-29T08:29:17;99646.84;;;10.35;100.00
32109;BME280;18624;50.042;8.436;2022-12-29T08:31:43;99640.28;;;10.32;100.00
32109;BME280;18624;50.042;8.436;2022-12-29T08:34:10;99639.06;;;10.33;100.00
32109;BME280;18624;50.042;8.436;2022-12-29T08:36:37;99650.03;;;10.33;100.00
32109;BME280;18624;50.042;8.436;2022-12-29T08:39:03;99661.00;;;10.33;100.00
32109;BME280;18624;50.042;8.436;2022-12-29T08:41:30;99654.28;;;10.34;100.00
32109;BME280;18624;50.042;8.436;2022-12-29T08:43:57;99662.41;;;10.38;100.00
32109;BME280;18624;50.042;8.436;2022-12-29T08:46:23;99661.94;;;10.39;100.00
32109;BME280;18624;50.042;8.436;2022-12-29T08:48:50;99661.44;;;10.32;100.00
32109;BME280;18624;50.042;8.436;2022-12-29T08:51:16;99665.06;;;10.29;100.00
32109;BME280;18624;50.042;8.436;2022-12-29T08:53:49;99661.25;;;10.13;100.00
32109;BME280;18624;50.042;8.436;2022-12-29T08:56:16;99684.56;;;10.18;100.00
32109;BME280;18624;50.042;8.436;2022-12-29T08:58:48;99678.44;;;10.14;100.00
32109;BME280;18624;50.042;8.436;2022-12-29T09:01:16;99692.81;;;10.05;100.00
32109;BME280;18624;50.042;8.436;2022-12-29T09:03:43;99680.09;;;9.99;100.00
32109;BME280;18624;50.042;8.436;2022-12-29T09:06:29;99681.53;;;9.90;100.00
32109;BME280;18624;50.042;8.436;2022-12-29T09:09:01;99684.53;;;9.83;100.00
32109;BME280;18624;50.042;8.436;2022-12-29T09:11:28;99692.28;;;9.85;100.00
32109;BME280;18624;50.042;8.436;2022-12-29T09:13:54;99717.47;;;9.80;100.00
32109;BME280;18624;50.042;8.436;2022-12-29T09:16:23;99702.56;;;9.81;100.00
32109;BME280;18624;50.042;8.436;2022-12-29T09:18:50;99711.13;;;9.83;100.00
32109;BME280;18624;50.042;8.436;2022-12-29T09:21:16;99699.84;;;9.81;100.00
32109;BME280;18624;50.042;8.436;2022-12-29T09:23:43;99697.44;;;9.83;100.00
32109;BME280;18624;50.042;8.436;2022-12-29T09:26:09;99701.81;;;9.80;100.00
32109;BME280;18624;50.042;8.436;2022-12-29T09:28:36;99715.19;;;9.78;100.00
32109;BME280;18624;50.042;8.436;2022-12-29T09:31:03;99731.25;;;9.76;100.00
32109;BME280;18624;50.042;8.436;2022-12-29T09:33:29;99737.28;;;9.71;100.00
32109;BME280;18624;50.042;8.436;2022-12-29T09:35:57;99737.72;;;9.70;100.00
32109;BME280;18624;50.042;8.436;2022-12-29T09:38:25;99702.91;;;9.57;100.00
32109;BME280;18624;50.042;8.436;2022-12-29T09:41:18;99721.31;;;9.70;100.00
32109;BME280;18624;50.042;8.436;2022-12-29T09:46:40;99720.31;;;9.63;100.00
32109;BME280;18624;50.042;8.436;2022-12-29T09:49:39;99730.84;;;9.65;100.00
32109;BME280;18624;50.042;8.436;2022-12-29T09:52:14;99743.00;;;9.64;100.00
32109;BME280;18624;50.042;8.436;2022-12-29T09:54:43;99739.81;;;9.66;100.00
32109;BME280;18624;50.042;8.436;2022-12-29T10:00:06;99743.09;;;9.60;100.00
32109;BME280;18624;50.042;8.436;2022-12-29T10:02:41;99735.19;;;9.62;100.00
32109;BME280;18624;50.042;8.436;2022-12-29T10:05:19;99732.56;;;9.59;100.00
32109;BME280;18624;50.042;8.436;2022-12-29T10:10:58;99698.44;;;9.51;100.00
32109;BME280;18624;50.042;8.436;2022-12-29T10:13:56;99705.34;;;9.55;100.00
32109;BME280;18624;50.042;8.436;2022-12-29T10:16:46;99716.28;;;9.55;100.00
32109;BME280;18624;50.042;8.436;2022-12-29T10:22:15;99713.19;;;9.53;100.00
32109;BME280;18624;50.042;8.436;2022-12-29T10:24:48;99722.63;;;9.52;100.00
32109;BME280;18624;50.042;8.436;2022-12-29T10:27:17;99660.09;;;9.12;100.00
32109;BME280;18624;50.042;8.436;2022-12-29T10:29:54;99711.22;;;9.54;100.00
32109;BME280;18624;50.042;8.436;2022-12-29T10:32:34;99723.72;;;9.55;100.00
32109;BME280;18624;50.042;8.436;2022-12-29T10:35:14;99730.72;;;9.56;100.00
32109;BME280;18624;50.042;8.436;2022-12-29T10:38:15;99736.97;;;9.56;100.00
32109;BME280;18624;50.042;8.436;2022-12-29T10:40:59;99720.09;;;9.58;100.00
32109;BME280;18624;50.042;8.436;2022-12-29T10:43:29;99733.34;;;9.59;100.00
32109;BME280;18624;50.042;8.436;2022-12-29T10:46:07;99722.06;;;9.57;100.00
32109;BME280;18624;50.042;8.436;2022-12-29T10:48:35;99738.28;;;9.64;100.00
32109;BME280;18624;50.042;8.436;2022-12-29T10:51:05;99742.53;;;9.66;100.00
32109;BME280;18624;50.042;8.436;2022-12-29T10:53:40;99738.06;;;9.72;100.00
32109;BME280;18624;50.042;8.436;2022-12-29T10:58:46;99731.50;;;9.69;100.00
32109;BME280;18624;50.042;8.436;2022-12-29T11:01:16;99737.19;;;9.75;100.00
32109;BME280;18624;50.042;8.436;2022-12-29T11:03:50;99738.16;;;9.81;100.00
32109;BME280;18624;50.042;8.436;2022-12-29T11:06:25;99736.06;;;9.85;100.00
32109;BME280;18624;50.042;8.436;2022-12-29T11:09:07;99738.72;;;9.88;100.00
32109;BME280;18624;50.042;8.436;2022-12-29T11:11:36;99748.56;;;9.99;100.00
32109;BME280;18624;50.042;8.436;2022-12-29T11:14:26;99753.34;;;10.07;100.00
32109;BME280;18624;50.042;8.436;2022-12-29T11:17:01;99655.88;;;9.37;100.00
32109;BME280;18624;50.042;8.436;2022-12-29T11:19:30;99756.84;;;10.21;100.00
32109;BME280;18624;50.042;8.436;2022-12-29T11:22:23;99760.28;;;10.25;100.00
32109;BME280;18624;50.042;8.436;2022-12-29T11:24:52;99778.78;;;10.33;100.00
32109;BME280;18624;50.042;8.436;2022-12-29T11:27:20;99769.22;;;10.38;100.00
32109;BME280;18624;50.042;8.436;2022-12-29T11:29:52;99777.75;;;10.40;100.00
32109;BME280;18624;50.042;8.436;2022-12-29T11:32:20;99767.47;;;10.44;100.00
32109;BME280;18624;50.042;8.436;2022-12-29T11:34:54;99777.09;;;10.49;100.00
32109;BME280;18624;50.042;8.436;2022-12-29T11:37:29;99775.34;;;10.55;100.00
32109;BME280;18624;50.042;8.436;2022-12-29T11:40:06;99759.13;;;10.48;100.00
32109;BME280;18624;50.042;8.436;2022-12-29T11:42:41;99762.94;;;10.63;100.00
32109;BME280;18624;50.042;8.436;2022-12-29T11:45:16;99768.63;;;10.69;100.00
32109;BME280;18624;50.042;8.436;2022-12-29T11:47:47;99766.50;;;10.73;100.00
32109;BME280;18624;50.042;8.436;2022-12-29T11:50:20;99765.59;;;10.76;100.00
32109;BME280;18624;50.042;8.436;2022-12-29T11:52:49;99769.13;;;10.76;100.00
32109;BME280;18624;50.042;8.436;2022-12-29T11:55:26;99718.59;;;10.43;100.00
32109;BME280;18624;50.042;8.436;2022-12-29T11:57:55;99764.28;;;10.80;100.00
32109;BME280;18624;50.042;8.436;2022-12-29T12:00:23;99742.59;;;10.73;100.00
32109;BME280;18624;50.042;8.436;2022-12-29T12:03:07;99764.63;;;10.82;100.00
32109;BME280;18624;50.042;8.436;2022-12-29T12:05:42;99749.81;;;10.80;100.00
32109;BME280;18624;50.042;8.436;2022-12-29T12:10:57;99741.28;;;10.78;100.00
32109;BME280;18624;50.042;8.436;2022-12-29T12:13:30;99763.59;;;10.89;100.00
32109;BME280;18624;50.042;8.436;2022-12-29T12:16:14;99755.81;;;10.87;100.00
32109;BME280;18624;50.042;8.436;2022-12-29T12:21:41;99704.53;;;10.53;100.00
32109;BME280;18624;50.042;8.436;2022-12-29T12:27:03;99745.63;;;10.88;100.00
32109;BME280;18624;50.042;8.436;2022-12-29T12:32:25;99744.84;;;10.87;100.00
32109;BME280;18624;50.042;8.436;2022-12-29T12:34:53;99748.63;;;10.81;100.00
32109;BME280;18624;50.042;8.436;2022-12-29T12:40:25;99748.84;;;10.74;100.00
32109;BME280;18624;50.042;8.436;2022-12-29T12:43:18;99741.50;;;10.71;100.00
32109;BME280;18624;50.042;8.436;2022-12-29T12:54:17;99750.22;;;10.56;100.00
32109;BME280;18624;50.042;8.436;2022-12-29T12:59:34;99749.16;;;10.54;100.00
32109;BME280;18624;50.042;8.436;2022-12-29T13:03:10;99744.84;;;10.53;100.00
32109;BME280;18624;50.042;8.436;2022-12-29T13:17:36;99642.41;;;10.15;100.00
32109;BME280;18624;50.042;8.436;2022-12-29T13:25:48;99727.88;;;10.80;100.00
32109;BME280;18624;50.042;8.436;2022-12-29T13:28:22;99727.56;;;10.78;100.00
32109;BME280;18624;50.042;8.436;2022-12-29T13:31:12;99735.22;;;10.83;100.00
32109;BME280;18624;50.042;8.436;2022-12-29T13:34:05;99732.94;;;10.81;100.00
32109;BME280;18624;50.042;8.436;2022-12-29T13:36:42;99750.25;;;10.78;100.00
32109;BME280;18624;50.042;8.436;2022-12-29T13:39:18;99752.25;;;10.78;100.00
32109;BME280;18624;50.042;8.436;2022-12-29T13:41:54;99743.38;;;10.74;100.00
32109;BME280;18624;50.042;8.436;2022-12-29T13:44:43;99740.50;;;10.77;100.00
32109;BME280;18624;50.042;8.436;2022-12-29T13:47:26;99756.63;;;10.75;100.00
32109;BME280;18624;50.042;8.436;2022-12-29T13:49:56;99735.38;;;10.67;100.00
32109;BME280;18624;50.042;8.436;2022-12-29T13:52:29;99741.72;;;10.76;100.00
32109;BME280;18624;50.042;8.436;2022-12-29T13:55:16;99739.88;;;10.73;100.00
32109;BME280;18624;50.042;8.436;2022-12-29T14:01:10;99756.78;;;10.72;100.00
32109;BME280;18624;50.042;8.436;2022-12-29T14:03:48;99754.78;;;10.72;100.00
32109;BME280;18624;50.042;8.436;2022-12-29T14:06:27;99762.25;;;10.72;100.00
32109;BME280;18624;50.042;8.436;2022-12-29T14:08:57;99759.94;;;10.70;100.00
32109;BME280;18624;50.042;8.436;2022-12-29T14:11:36;99761.91;;;10.70;100.00
32109;BME280;18624;50.042;8.436;2022-12-29T14:14:13;99776.84;;;10.69;100.00
32109;BME280;18624;50.042;8.436;2022-12-29T14:16:40;99774.97;;;10.65;100.00
32109;BME280;18624;50.042;8.436;2022-12-29T14:19:17;99765.78;;;10.59;100.00
32109;BME280;18624;50.042;8.436;2022-12-29T14:22:04;99772.16;;;10.56;100.00
32109;BME280;18624;50.042;8.436;2022-12-29T14:29:51;99785.84;;;10.56;100.00
32109;BME280;18624;50.042;8.436;2022-12-29T14:34:48;99796.03;;;10.56;100.00
32109;BME280;18624;50.042;8.436;2022-12-29T14:42:48;99726.31;;;10.09;100.00
32109;BME280;18624;50.042;8.436;2022-12-29T14:47:50;99795.94;;;10.59;100.00
32109;BME280;18624;50.042;8.436;2022-12-29T14:50:39;99800.19;;;10.60;100.00
32109;BME280;18624;50.042;8.436;2022-12-29T14:53:41;99788.94;;;10.58;100.00
32109;BME280;18624;50.042;8.436;2022-12-29T14:56:10;99781.13;;;10.57;100.00
32109;BME280;18624;50.042;8.436;2022-12-29T14:59:02;99775.34;;;10.55;100.00
32109;BME280;18624;50.042;8.436;2022-12-29T15:01:40;99767.53;;;10.53;100.00
32109;BME280;18624;50.042;8.436;2022-12-29T15:04:31;99779.41;;;10.50;100.00
32109;BME280;18624;50.042;8.436;2022-12-29T15:06:59;99782.25;;;10.47;100.00